createdAt,value
2019-05-03T00:00:15.992Z,9.06
2019-05-03T00:01:15.985Z,9.04
2019-05-03T00:02:15.984Z,9.04
2019-05-03T00:03:15.977Z,9.11
2019-05-03T00:04:15.971Z,9.10
2019-05-03T00:05:15.966Z,9.14
2019-05-03T00:06:15.961Z,9.10
2019-05-03T00:07:15.956Z,9.10
2019-05-03T00:08:15.950Z,9.10
2019-05-03T00:09:15.946Z,9.02
2019-05-03T00:10:15.941Z,9.06
2019-05-03T00:11:15.936Z,9.13
2019-05-03T00:12:15.936Z,9.19
2019-05-03T00:13:15.926Z,9.16
2019-05-03T00:14:15.921Z,9.13
2019-05-03T00:15:15.914Z,9.10
2019-05-03T00:16:15.911Z,9.21
2019-05-03T00:17:15.905Z,9.13
2019-05-03T00:18:15.900Z,9.21
2019-05-03T00:19:15.906Z,9.14
2019-05-03T00:20:15.890Z,9.14
2019-05-03T00:21:15.885Z,9.14
2019-05-03T00:22:15.879Z,9.13
2019-05-03T00:23:15.874Z,9.19
2019-05-03T00:24:15.868Z,9.21
2019-05-03T00:25:15.863Z,9.18
2019-05-03T00:26:15.858Z,9.14
2019-05-03T00:27:15.864Z,9.19
2019-05-03T00:28:15.848Z,9.18
2019-05-03T00:29:15.843Z,9.18
2019-05-03T00:30:15.837Z,9.14
2019-05-03T00:31:15.833Z,9.21
2019-05-03T00:32:15.827Z,9.21
2019-05-03T00:33:15.824Z,9.18
2019-05-03T00:34:15.816Z,9.22
2019-05-03T00:35:15.816Z,9.23
2019-05-03T00:36:15.811Z,9.19
2019-05-03T00:37:15.803Z,9.10
2019-05-03T00:38:15.797Z,9.10
2019-05-03T00:39:15.792Z,9.19
2019-05-03T00:40:15.785Z,9.08
2019-05-03T00:41:15.783Z,9.10
2019-05-03T00:42:15.784Z,9.22
2019-05-03T00:43:15.772Z,9.11
2019-05-03T00:44:15.767Z,9.21
2019-05-03T00:45:15.761Z,9.23
2019-05-03T00:46:15.756Z,9.13
2019-05-03T00:47:15.751Z,9.14
2019-05-03T00:48:15.749Z,9.14
2019-05-03T00:49:15.740Z,9.14
2019-05-03T00:50:15.735Z,9.02
2019-05-03T00:51:15.732Z,9.13
2019-05-03T00:52:15.725Z,9.04
2019-05-03T00:53:15.720Z,9.11
2019-05-03T00:54:15.716Z,9.08
2019-05-03T00:55:18.753Z,9.13
2019-05-03T00:56:15.714Z,8.99
2019-05-03T00:57:15.703Z,9.08
2019-05-03T00:58:15.695Z,8.95
2019-05-03T00:59:15.690Z,8.95
2019-05-03T01:00:15.685Z,9.03
2019-05-03T01:01:15.679Z,8.91
2019-05-03T01:02:15.674Z,9.03
2019-05-03T01:03:15.670Z,9.04
2019-05-03T01:04:15.662Z,8.92
2019-05-03T01:05:15.657Z,8.99
2019-05-03T01:06:15.652Z,8.95
2019-05-03T01:07:15.650Z,9.00
2019-05-03T01:08:15.645Z,8.95
2019-05-03T01:09:15.636Z,9.00
2019-05-03T01:10:15.631Z,8.97
2019-05-03T01:11:15.627Z,8.97
2019-05-03T01:12:15.624Z,9.03
2019-05-03T01:13:15.616Z,8.95
2019-05-03T01:14:15.613Z,9.04
2019-05-03T01:15:15.607Z,9.02
2019-05-03T01:16:15.601Z,8.94
2019-05-03T01:17:15.597Z,9.00
2019-05-03T01:18:15.591Z,8.97
2019-05-03T01:19:15.586Z,8.95
2019-05-03T01:20:15.581Z,9.00
2019-05-03T01:21:15.575Z,8.92
2019-05-03T01:22:15.570Z,9.06
2019-05-03T01:23:15.565Z,9.08
2019-05-03T01:24:18.125Z,9.06
2019-05-03T01:25:15.553Z,9.02
2019-05-03T01:26:15.548Z,9.10
2019-05-03T01:27:15.543Z,8.95
2019-05-03T01:28:15.538Z,9.08
2019-05-03T01:29:15.532Z,9.03
2019-05-03T01:30:15.528Z,9.03
2019-05-03T01:31:15.522Z,8.92
2019-05-03T01:32:15.517Z,9.04
2019-05-03T01:33:15.511Z,9.03
2019-05-03T01:34:15.506Z,8.97
2019-05-03T01:35:15.518Z,8.99
2019-05-03T01:36:15.497Z,8.92
2019-05-03T01:37:15.492Z,8.87
2019-05-03T01:38:15.487Z,8.99
2019-05-03T01:39:15.482Z,8.89
2019-05-03T01:40:15.476Z,8.82
2019-05-03T01:41:15.470Z,8.78
2019-05-03T01:42:15.465Z,8.85
2019-05-03T01:43:15.461Z,8.81
2019-05-03T01:44:15.459Z,8.88
2019-05-03T01:45:15.451Z,8.84
2019-05-03T01:46:15.444Z,8.81
2019-05-03T01:47:15.440Z,8.84
2019-05-03T01:48:15.434Z,8.87
2019-05-03T01:49:15.428Z,8.69
2019-05-03T01:50:15.423Z,8.67
2019-05-03T01:51:15.418Z,8.79
2019-05-03T01:52:15.412Z,8.76
2019-05-03T01:53:15.407Z,8.81
2019-05-03T01:54:15.403Z,8.81
2019-05-03T01:55:16.001Z,8.79
2019-05-03T01:56:15.397Z,8.85
2019-05-03T01:57:15.386Z,8.76
2019-05-03T01:58:15.382Z,8.81
2019-05-03T01:59:15.377Z,8.84
2019-05-03T02:00:15.382Z,8.84
2019-05-03T02:01:15.365Z,8.91
2019-05-03T02:02:15.362Z,8.89
2019-05-03T02:03:15.356Z,8.85
2019-05-03T02:04:15.350Z,8.84
2019-05-03T02:05:15.347Z,8.88
2019-05-03T02:06:15.342Z,8.87
2019-05-03T02:07:15.334Z,8.84
2019-05-03T02:08:15.331Z,8.82
2019-05-03T02:09:15.323Z,8.81
2019-05-03T02:10:15.319Z,8.74
2019-05-03T02:11:15.314Z,8.67
2019-05-03T02:12:15.315Z,8.71
2019-05-03T02:13:15.303Z,8.67
2019-05-03T02:14:15.299Z,8.69
2019-05-03T02:15:15.293Z,8.74
2019-05-03T02:16:15.296Z,8.74
2019-05-03T02:17:15.281Z,8.67
2019-05-03T02:18:15.314Z,8.66
2019-05-03T02:19:15.271Z,8.76
2019-05-03T02:20:15.266Z,8.81
2019-05-03T02:21:15.260Z,8.74
2019-05-03T02:22:15.256Z,8.70
2019-05-03T02:23:15.251Z,8.73
2019-05-03T02:24:15.245Z,8.61
2019-05-03T02:25:15.240Z,8.66
2019-05-03T02:26:15.235Z,8.69
2019-05-03T02:27:15.232Z,8.67
2019-05-03T02:28:15.225Z,8.74
2019-05-03T02:29:15.222Z,8.64
2019-05-03T02:30:15.215Z,8.70
2019-05-03T02:31:15.210Z,8.67
2019-05-03T02:32:15.204Z,8.69
2019-05-03T02:33:15.199Z,8.69
2019-05-03T02:34:15.194Z,8.67
2019-05-03T02:35:15.191Z,8.71
2019-05-03T02:36:15.183Z,8.67
2019-05-03T02:37:15.176Z,8.64
2019-05-03T02:38:15.179Z,8.67
2019-05-03T02:39:15.166Z,8.73
2019-05-03T02:40:15.161Z,8.73
2019-05-03T02:41:15.157Z,8.66
2019-05-03T02:42:16.109Z,8.64
2019-05-03T02:43:16.520Z,8.60
2019-05-03T02:44:15.593Z,8.66
2019-05-03T02:45:15.484Z,8.61
2019-05-03T02:46:16.721Z,8.60
2019-05-03T02:47:15.917Z,8.63
2019-05-03T02:48:16.577Z,8.71
2019-05-03T02:49:15.421Z,8.58
2019-05-03T02:50:16.719Z,8.52
2019-05-03T02:51:15.727Z,8.66
2019-05-03T02:52:15.235Z,8.64
2019-05-03T02:53:15.780Z,8.58
2019-05-03T02:54:15.698Z,8.60
2019-05-03T02:55:15.992Z,8.63
2019-05-03T02:56:22.010Z,8.67
2019-05-03T02:57:15.153Z,8.69
2019-05-03T02:58:15.915Z,8.64
2019-05-03T02:59:15.800Z,8.61
2019-05-03T03:00:16.277Z,8.61
2019-05-03T03:01:16.326Z,8.60
2019-05-03T03:02:15.220Z,8.49
2019-05-03T03:03:16.673Z,8.66
2019-05-03T03:04:15.744Z,8.53
2019-05-03T03:05:16.588Z,8.58
2019-05-03T03:06:15.766Z,8.56
2019-05-03T03:07:15.206Z,8.60
2019-05-03T03:08:16.273Z,8.56
2019-05-03T03:09:16.479Z,8.58
2019-05-03T03:10:16.188Z,8.61
2019-05-03T03:11:15.577Z,8.58
2019-05-03T03:12:15.285Z,8.60
2019-05-03T03:13:16.317Z,8.53
2019-05-03T03:14:16.731Z,8.52
2019-05-03T03:15:16.238Z,8.56
2019-05-03T03:16:16.294Z,8.49
2019-05-03T03:17:15.014Z,8.49
2019-05-03T03:18:15.742Z,8.52
2019-05-03T03:19:15.890Z,8.53
2019-05-03T03:20:16.130Z,8.49
2019-05-03T03:21:16.076Z,8.52
2019-05-03T03:22:15.937Z,8.49
2019-05-03T03:23:17.970Z,8.61
2019-05-03T03:24:16.952Z,8.58
2019-05-03T03:25:17.626Z,8.53
2019-05-03T03:26:16.977Z,8.52
2019-05-03T03:27:16.330Z,8.49
2019-05-03T03:28:15.854Z,8.45
2019-05-03T03:29:16.083Z,8.56
2019-05-03T03:30:17.353Z,8.48
2019-05-03T03:31:17.650Z,8.52
2019-05-03T03:32:18.219Z,8.45
2019-05-03T03:33:17.550Z,8.48
2019-05-03T03:34:18.395Z,8.48
2019-05-03T03:35:20.209Z,8.46
2019-05-03T03:36:37.837Z,8.45
2019-05-03T03:37:15.592Z,8.42
2019-05-03T03:38:15.507Z,8.46
2019-05-03T03:39:15.089Z,8.55
2019-05-03T03:40:16.057Z,8.45
2019-05-03T03:41:16.278Z,8.49
2019-05-03T03:42:16.082Z,8.56
2019-05-03T03:43:15.690Z,8.46
2019-05-03T03:44:15.258Z,8.60
2019-05-03T03:45:16.609Z,8.45
2019-05-03T03:46:15.763Z,8.41
2019-05-03T03:47:16.785Z,8.42
2019-05-03T03:48:15.770Z,8.48
2019-05-03T03:49:15.543Z,8.42
2019-05-03T03:50:15.144Z,8.38
2019-05-03T03:51:15.558Z,8.46
2019-05-03T03:52:15.992Z,8.48
2019-05-03T03:53:15.440Z,8.44
2019-05-03T03:54:15.471Z,8.46
2019-05-03T03:55:15.921Z,8.44
2019-05-03T03:56:15.994Z,8.46
2019-05-03T03:57:15.896Z,8.45
2019-05-03T03:58:21.923Z,8.49
2019-05-03T03:59:15.382Z,8.52
2019-05-03T04:00:16.233Z,8.45
2019-05-03T04:01:15.690Z,8.38
2019-05-03T04:02:16.061Z,8.41
2019-05-03T04:03:15.804Z,8.45
2019-05-03T04:04:16.026Z,8.38
2019-05-03T04:05:15.921Z,8.36
2019-05-03T04:06:15.381Z,8.38
2019-05-03T04:07:15.747Z,8.38
2019-05-03T04:08:16.193Z,8.38
2019-05-03T04:09:16.078Z,8.42
2019-05-03T04:10:15.665Z,8.30
2019-05-03T04:11:15.611Z,8.37
2019-05-03T04:12:16.558Z,8.26
2019-05-03T04:13:15.942Z,8.36
2019-05-03T04:14:16.131Z,8.27
2019-05-03T04:15:16.027Z,8.33
2019-05-03T04:16:20.307Z,8.31
2019-05-03T04:17:15.061Z,8.31
2019-05-03T04:18:16.331Z,8.27
2019-05-03T04:19:17.147Z,8.38
2019-05-03T04:20:16.280Z,8.30
2019-05-03T04:21:16.252Z,8.33
2019-05-03T04:22:16.484Z,8.33
2019-05-03T04:23:16.287Z,8.36
2019-05-03T04:24:16.298Z,8.31
2019-05-03T04:25:15.441Z,8.31
2019-05-03T04:26:16.334Z,8.30
2019-05-03T04:27:22.259Z,8.33
2019-05-03T04:28:16.282Z,8.28
2019-05-03T04:29:16.086Z,8.36
2019-05-03T04:30:16.473Z,8.28
2019-05-03T04:31:15.210Z,8.27
2019-05-03T04:32:15.738Z,8.34
2019-05-03T04:33:16.030Z,8.34
2019-05-03T04:34:16.189Z,8.30
2019-05-03T04:35:16.521Z,8.31
2019-05-03T04:36:16.007Z,8.26
2019-05-03T04:37:16.098Z,8.33
2019-05-03T04:38:16.208Z,8.26
2019-05-03T04:39:19.642Z,8.34
2019-05-03T04:40:15.566Z,8.33
2019-05-03T04:41:15.862Z,8.31
2019-05-03T04:42:16.583Z,8.34
2019-05-03T04:43:16.480Z,8.34
2019-05-03T04:44:15.513Z,8.33
2019-05-03T04:45:16.566Z,8.30
2019-05-03T04:46:16.411Z,8.36
2019-05-03T04:47:15.700Z,8.34
2019-05-03T04:48:15.998Z,8.28
2019-05-03T04:49:15.138Z,8.33
2019-05-03T04:50:16.309Z,8.27
2019-05-03T04:51:16.646Z,8.36
2019-05-03T04:52:16.515Z,8.28
2019-05-03T04:53:16.227Z,8.34
2019-05-03T04:54:16.340Z,8.41
2019-05-03T04:55:16.038Z,8.33
2019-05-03T04:56:16.941Z,8.19
2019-05-03T04:57:16.050Z,8.33
2019-05-03T04:58:16.091Z,8.28
2019-05-03T04:59:15.918Z,8.41
2019-05-03T05:00:15.951Z,8.30
2019-05-03T05:01:15.834Z,8.42
2019-05-03T05:02:15.886Z,8.34
2019-05-03T05:03:15.097Z,8.34
2019-05-03T05:04:16.103Z,8.28
2019-05-03T05:05:15.341Z,8.44
2019-05-03T05:06:15.433Z,8.28
2019-05-03T05:07:15.483Z,8.27
2019-05-03T05:08:16.240Z,8.37
2019-05-03T05:09:15.531Z,8.44
2019-05-03T05:10:15.302Z,8.41
2019-05-03T05:11:15.740Z,8.41
2019-05-03T05:12:16.137Z,8.28
2019-05-03T05:13:15.785Z,8.41
2019-05-03T05:14:15.321Z,8.36
2019-05-03T05:15:15.609Z,8.45
2019-05-03T05:16:16.009Z,8.45
2019-05-03T05:17:16.285Z,8.46
2019-05-03T05:18:15.938Z,8.51
2019-05-03T05:19:15.189Z,8.36
2019-05-03T05:20:14.506Z,8.48
2019-05-03T05:21:15.000Z,8.45
2019-05-03T05:22:15.529Z,8.46
2019-05-03T05:23:14.747Z,8.53
2019-05-03T05:24:15.162Z,8.49
2019-05-03T05:25:14.851Z,8.46
2019-05-03T05:26:14.462Z,8.51
2019-05-03T05:27:14.659Z,8.60
2019-05-03T05:28:15.001Z,8.55
2019-05-03T05:29:14.579Z,8.66
2019-05-03T05:30:14.924Z,8.70
2019-05-03T05:31:15.156Z,8.69
2019-05-03T05:32:14.461Z,8.73
2019-05-03T05:33:14.550Z,8.82
2019-05-03T05:34:15.360Z,8.82
2019-05-03T05:35:14.428Z,8.92
2019-05-03T05:36:15.303Z,8.91
2019-05-03T05:37:14.547Z,8.92
2019-05-03T05:38:15.000Z,9.13
2019-05-03T05:39:15.247Z,9.13
2019-05-03T05:40:15.633Z,9.21
2019-05-03T05:41:15.626Z,9.14
2019-05-03T05:42:14.892Z,9.19
2019-05-03T05:43:15.197Z,9.19
2019-05-03T05:44:14.525Z,9.16
2019-05-03T05:45:15.342Z,9.19
2019-05-03T05:46:14.647Z,9.18
2019-05-03T05:47:15.005Z,9.23
2019-05-03T05:48:15.369Z,9.16
2019-05-03T05:49:14.679Z,9.06
2019-05-03T05:50:14.890Z,9.11
2019-05-03T05:51:15.967Z,9.26
2019-05-03T05:52:15.497Z,9.34
2019-05-03T05:53:15.266Z,9.43
2019-05-03T05:54:14.374Z,9.40
2019-05-03T05:55:14.950Z,9.43
2019-05-03T05:56:15.671Z,9.29
2019-05-03T05:57:14.989Z,9.14
2019-05-03T05:58:15.562Z,9.13
2019-05-03T05:59:14.850Z,9.06
2019-05-03T06:00:15.302Z,9.25
2019-05-03T06:01:14.622Z,9.28
2019-05-03T06:02:15.033Z,9.36
2019-05-03T06:03:14.931Z,9.36
2019-05-03T06:04:15.379Z,9.43
2019-05-03T06:05:14.809Z,9.28
2019-05-03T06:06:15.255Z,9.34
2019-05-03T06:07:14.867Z,9.22
2019-05-03T06:08:15.082Z,9.28
2019-05-03T06:09:15.306Z,9.31
2019-05-03T06:10:14.745Z,9.40
2019-05-03T06:11:14.896Z,9.14
2019-05-03T06:12:14.889Z,9.11
2019-05-03T06:13:15.235Z,9.22
2019-05-03T06:14:15.317Z,9.11
2019-05-03T06:15:15.003Z,9.25
2019-05-03T06:16:15.506Z,9.36
2019-05-03T06:17:14.618Z,9.28
2019-05-03T06:18:14.631Z,9.37
2019-05-03T06:19:14.679Z,9.36
2019-05-03T06:20:15.578Z,9.25
2019-05-03T06:21:14.812Z,9.19
2019-05-03T06:22:15.354Z,9.26
2019-05-03T06:23:14.450Z,9.26
2019-05-03T06:24:14.796Z,9.28
2019-05-03T06:25:16.636Z,9.32
2019-05-03T06:26:15.637Z,9.50
2019-05-03T06:27:15.273Z,9.39
2019-05-03T06:28:19.931Z,9.47
2019-05-03T06:29:14.956Z,9.50
2019-05-03T06:30:14.965Z,9.59
2019-05-03T06:31:14.891Z,9.72
2019-05-03T06:32:15.403Z,9.64
2019-05-03T06:33:14.359Z,9.64
2019-05-03T06:34:14.959Z,9.64
2019-05-03T06:35:15.229Z,9.65
2019-05-03T06:36:15.275Z,9.58
2019-05-03T06:37:14.833Z,9.58
2019-05-03T06:38:15.256Z,9.64
2019-05-03T06:39:15.466Z,9.59
2019-05-03T06:40:14.934Z,9.72
2019-05-03T06:41:15.052Z,9.66
2019-05-03T06:42:16.030Z,9.66
2019-05-03T06:43:15.614Z,9.74
2019-05-03T06:44:14.440Z,9.84
2019-05-03T06:45:15.053Z,9.76
2019-05-03T06:46:16.421Z,9.97
2019-05-03T06:47:14.839Z,9.77
2019-05-03T06:48:15.772Z,9.84
2019-05-03T06:49:15.147Z,10.05
2019-05-03T06:50:14.561Z,9.66
2019-05-03T06:51:19.180Z,9.80
2019-05-03T06:52:14.738Z,9.69
2019-05-03T06:53:15.491Z,9.87
2019-05-03T06:54:15.637Z,9.83
2019-05-03T06:55:14.474Z,9.97
2019-05-03T06:56:14.829Z,10.17
2019-05-03T06:57:14.806Z,10.25
2019-05-03T06:58:15.314Z,10.17
2019-05-03T06:59:14.389Z,10.19
2019-05-03T07:00:15.366Z,10.17
2019-05-03T07:01:14.897Z,10.22
2019-05-03T07:02:14.869Z,10.10
2019-05-03T07:03:15.157Z,10.10
2019-05-03T07:04:15.214Z,9.83
2019-05-03T07:05:15.281Z,9.97
2019-05-03T07:06:15.043Z,9.95
2019-05-03T07:07:15.420Z,9.89
2019-05-03T07:08:15.223Z,9.89
2019-05-03T07:09:14.454Z,10.13
2019-05-03T07:10:15.028Z,10.22
2019-05-03T07:11:15.356Z,10.15
2019-05-03T07:12:14.854Z,10.02
2019-05-03T07:13:15.189Z,10.02
2019-05-03T07:14:15.433Z,10.09
2019-05-03T07:15:14.486Z,9.84
2019-05-03T07:16:14.938Z,9.80
2019-05-03T07:17:14.474Z,9.92
2019-05-03T07:18:15.586Z,10.12
2019-05-03T07:19:14.744Z,10.22
2019-05-03T07:20:14.830Z,10.30
2019-05-03T07:21:15.257Z,10.37
2019-05-03T07:22:15.233Z,10.53
2019-05-03T07:23:15.428Z,10.71
2019-05-03T07:24:14.664Z,10.75
2019-05-03T07:25:14.939Z,10.74
2019-05-03T07:26:15.061Z,10.71
2019-05-03T07:27:15.703Z,10.76
2019-05-03T07:28:14.970Z,10.75
2019-05-03T07:29:15.253Z,10.69
2019-05-03T07:30:15.541Z,10.79
2019-05-03T07:31:15.058Z,10.81
2019-05-03T07:32:15.392Z,10.96
2019-05-03T07:33:15.085Z,10.81
2019-05-03T07:34:15.427Z,10.92
2019-05-03T07:35:14.765Z,11.02
2019-05-03T07:36:15.297Z,11.15
2019-05-03T07:37:14.558Z,11.41
2019-05-03T07:38:15.485Z,11.37
2019-05-03T07:39:14.516Z,10.84
2019-05-03T07:40:14.822Z,10.84
2019-05-03T07:41:14.908Z,10.69
2019-05-03T07:42:15.526Z,10.57
2019-05-03T07:43:14.864Z,10.48
2019-05-03T07:44:15.221Z,10.33
2019-05-03T07:45:14.915Z,10.35
2019-05-03T07:46:14.681Z,10.31
2019-05-03T07:47:14.883Z,10.13
2019-05-03T07:48:15.037Z,10.17
2019-05-03T07:49:15.258Z,10.10
2019-05-03T07:50:15.236Z,10.13
2019-05-03T07:51:14.450Z,10.02
2019-05-03T07:52:14.755Z,10.12
2019-05-03T07:53:15.108Z,9.97
2019-05-03T07:54:15.514Z,10.07
2019-05-03T07:55:14.994Z,10.23
2019-05-03T07:56:15.389Z,10.26
2019-05-03T07:57:14.908Z,10.25
2019-05-03T07:58:15.024Z,10.19
2019-05-03T07:59:14.978Z,10.02
2019-05-03T08:00:14.984Z,9.77
2019-05-03T08:01:14.917Z,9.82
2019-05-03T08:02:14.466Z,9.72
2019-05-03T08:03:15.310Z,9.77
2019-05-03T08:04:15.268Z,9.68
2019-05-03T08:05:15.431Z,9.66
2019-05-03T08:06:14.936Z,9.94
2019-05-03T08:07:20.713Z,11.22
2019-05-03T08:08:14.948Z,12.13
2019-05-03T08:09:15.171Z,12.49
2019-05-03T08:10:15.311Z,13.23
2019-05-03T08:11:14.437Z,13.92
2019-05-03T08:12:15.362Z,13.57
2019-05-03T08:13:15.085Z,13.63
2019-05-03T08:14:16.079Z,14.07
2019-05-03T08:15:15.586Z,14.14
2019-05-03T08:16:15.900Z,14.25
2019-05-03T08:17:15.243Z,13.70
2019-05-03T08:18:15.364Z,13.89
2019-05-03T08:19:15.199Z,13.79
2019-05-03T08:20:14.402Z,14.14
2019-05-03T08:21:14.921Z,14.10
2019-05-03T08:22:14.957Z,14.35
2019-05-03T08:23:24.405Z,14.47
2019-05-03T08:24:14.938Z,13.87
2019-05-03T08:25:14.646Z,13.00
2019-05-03T08:26:15.311Z,12.55
2019-05-03T08:27:14.812Z,12.17
2019-05-03T08:28:14.654Z,11.60
2019-05-03T08:29:18.374Z,11.50
2019-05-03T08:30:14.775Z,11.45
2019-05-03T08:31:15.116Z,11.18
2019-05-03T08:32:15.322Z,11.18
2019-05-03T08:33:14.744Z,11.15
2019-05-03T08:34:15.274Z,11.10
2019-05-03T08:35:15.192Z,11.00
2019-05-03T08:36:15.488Z,11.10
2019-05-03T08:37:15.228Z,11.14
2019-05-03T08:38:15.197Z,11.86
2019-05-03T08:39:15.740Z,13.03
2019-05-03T08:40:15.465Z,13.08
2019-05-03T08:41:14.548Z,13.47
2019-05-03T08:42:15.000Z,13.95
2019-05-03T08:43:15.417Z,14.30
2019-05-03T08:44:14.548Z,13.83
2019-05-03T08:45:14.833Z,13.47
2019-05-03T08:46:14.845Z,12.97
2019-05-03T08:47:15.362Z,12.53
2019-05-03T08:48:15.087Z,12.32
2019-05-03T08:49:15.041Z,12.22
2019-05-03T08:50:19.386Z,11.80
2019-05-03T08:51:14.880Z,11.50
2019-05-03T08:52:15.543Z,11.08
2019-05-03T08:53:15.407Z,10.96
2019-05-03T08:54:15.076Z,10.97
2019-05-03T08:55:15.644Z,11.12
2019-05-03T08:56:15.497Z,11.33
2019-05-03T08:57:14.954Z,11.60
2019-05-03T08:58:15.360Z,11.78
2019-05-03T08:59:26.182Z,12.00
2019-05-03T09:00:14.454Z,11.97
2019-05-03T09:01:14.825Z,11.83
2019-05-03T09:02:14.266Z,11.78
2019-05-03T09:03:14.414Z,11.66
2019-05-03T09:04:15.376Z,11.30
2019-05-03T09:05:15.316Z,11.30
2019-05-03T09:06:15.318Z,11.33
2019-05-03T09:07:14.766Z,11.47
2019-05-03T09:08:15.577Z,11.37
2019-05-03T09:09:15.061Z,11.18
2019-05-03T09:10:16.792Z,11.04
2019-05-03T09:11:15.399Z,10.89
2019-05-03T09:12:14.491Z,11.02
2019-05-03T09:13:14.744Z,11.11
2019-05-03T09:14:14.970Z,11.00
2019-05-03T09:15:15.172Z,11.63
2019-05-03T09:16:14.773Z,12.65
2019-05-03T09:17:15.116Z,13.78
2019-05-03T09:18:16.848Z,14.20
2019-05-03T09:19:14.761Z,14.84
2019-05-03T09:20:15.449Z,15.11
2019-05-03T09:21:14.758Z,14.32
2019-05-03T09:22:14.795Z,14.29
2019-05-03T09:23:14.881Z,14.28
2019-05-03T09:24:15.027Z,13.87
2019-05-03T09:25:15.325Z,13.96
2019-05-03T09:26:15.113Z,14.37
2019-05-03T09:27:14.887Z,13.90
2019-05-03T09:28:15.063Z,13.41
2019-05-03T09:29:14.767Z,12.79
2019-05-03T09:30:14.538Z,12.37
2019-05-03T09:31:15.332Z,12.20
2019-05-03T09:32:14.732Z,12.07
2019-05-03T09:33:15.147Z,11.81
2019-05-03T09:34:14.776Z,11.81
2019-05-03T09:35:27.203Z,11.81
2019-05-03T09:36:14.672Z,11.78
2019-05-03T09:37:15.362Z,11.50
2019-05-03T09:38:15.017Z,11.51
2019-05-03T09:39:14.898Z,11.41
2019-05-03T09:40:15.054Z,11.40
2019-05-03T09:41:15.039Z,11.08
2019-05-03T09:42:15.392Z,11.29
2019-05-03T09:43:15.058Z,11.62
2019-05-03T09:44:15.081Z,12.13
2019-05-03T09:45:15.253Z,12.86
2019-05-03T09:46:14.594Z,13.52
2019-05-03T09:47:14.633Z,14.29
2019-05-03T09:48:15.039Z,14.36
2019-05-03T09:49:16.228Z,14.15
2019-05-03T09:50:15.473Z,14.44
2019-05-03T09:51:14.801Z,14.51
2019-05-03T09:52:15.805Z,14.59
2019-05-03T09:53:14.763Z,14.92
2019-05-03T09:54:14.858Z,14.86
2019-05-03T09:55:14.516Z,14.62
2019-05-03T09:56:15.370Z,14.99
2019-05-03T09:57:15.191Z,15.37
2019-05-03T09:58:15.160Z,15.86
2019-05-03T09:59:14.794Z,16.08
2019-05-03T10:00:13.529Z,16.61
2019-05-03T10:01:15.077Z,15.67
2019-05-03T10:02:15.031Z,15.00
2019-05-03T10:03:13.542Z,13.96
2019-05-03T10:04:13.538Z,13.56
2019-05-03T10:05:15.473Z,13.31
2019-05-03T10:06:15.296Z,13.11
2019-05-03T10:07:15.310Z,12.83
2019-05-03T10:08:15.595Z,12.57
2019-05-03T10:09:15.370Z,12.60
2019-05-03T10:10:15.424Z,12.54
2019-05-03T10:11:15.505Z,12.82
2019-05-03T10:12:15.966Z,12.76
2019-05-03T10:13:21.645Z,12.83
2019-05-03T10:14:15.440Z,12.82
2019-05-03T10:15:15.358Z,12.28
2019-05-03T10:16:15.397Z,12.15
2019-05-03T10:17:15.235Z,12.17
2019-05-03T10:18:13.561Z,12.09
2019-05-03T10:19:14.355Z,12.13
2019-05-03T10:20:15.288Z,12.22
2019-05-03T10:21:14.836Z,12.35
2019-05-03T10:22:15.374Z,12.45
2019-05-03T10:23:14.908Z,12.91
2019-05-03T10:24:15.222Z,13.44
2019-05-03T10:25:13.562Z,13.77
2019-05-03T10:26:14.993Z,13.83
2019-05-03T10:27:15.222Z,13.79
2019-05-03T10:28:15.254Z,14.00
2019-05-03T10:29:15.256Z,13.95
2019-05-03T10:30:16.546Z,14.07
2019-05-03T10:31:13.567Z,13.62
2019-05-03T10:32:15.121Z,13.42
2019-05-03T10:33:15.519Z,13.20
2019-05-03T10:34:15.423Z,13.05
2019-05-03T10:35:15.175Z,12.85
2019-05-03T10:36:15.400Z,12.37
2019-05-03T10:37:15.151Z,12.24
2019-05-03T10:38:15.142Z,12.35
2019-05-03T10:39:15.380Z,12.13
2019-05-03T10:40:13.560Z,12.09
2019-05-03T10:41:13.561Z,12.27
2019-05-03T10:42:13.562Z,12.40
2019-05-03T10:43:13.562Z,12.86
2019-05-03T10:44:15.059Z,13.12
2019-05-03T10:45:15.190Z,13.50
2019-05-03T10:46:15.672Z,13.33
2019-05-03T10:47:14.677Z,13.95
2019-05-03T10:48:15.362Z,14.29
2019-05-03T10:49:15.174Z,13.70
2019-05-03T10:50:15.447Z,13.50
2019-05-03T10:51:15.366Z,13.63
2019-05-03T10:52:15.025Z,13.93
2019-05-03T10:53:15.286Z,14.85
2019-05-03T10:54:14.622Z,14.63
2019-05-03T10:55:15.717Z,14.28
2019-05-03T10:56:14.796Z,14.32
2019-05-03T10:57:15.754Z,14.32
2019-05-03T10:58:15.554Z,14.54
2019-05-03T10:59:13.556Z,14.07
2019-05-03T11:00:41.706Z,14.04
2019-05-03T11:01:13.557Z,13.68
2019-05-03T11:02:13.557Z,13.12
2019-05-03T11:03:13.556Z,13.19
2019-05-03T11:04:14.758Z,13.12
2019-05-03T11:05:14.627Z,12.79
2019-05-03T11:06:14.818Z,12.82
2019-05-03T11:07:14.910Z,13.03
2019-05-03T11:08:14.562Z,12.87
2019-05-03T11:09:15.261Z,12.82
2019-05-03T11:10:14.686Z,12.86
2019-05-03T11:11:15.107Z,12.78
2019-05-03T11:12:14.794Z,12.80
2019-05-03T11:13:15.306Z,12.93
2019-05-03T11:14:14.958Z,12.94
2019-05-03T11:15:14.965Z,13.01
2019-05-03T11:16:14.822Z,12.79
2019-05-03T11:17:14.857Z,12.82
2019-05-03T11:18:14.696Z,12.65
2019-05-03T11:19:14.516Z,12.55
2019-05-03T11:20:22.206Z,12.50
2019-05-03T11:21:15.527Z,12.61
2019-05-03T11:22:14.577Z,12.61
2019-05-03T11:23:14.646Z,12.79
2019-05-03T11:24:14.787Z,12.80
2019-05-03T11:25:13.549Z,12.78
2019-05-03T11:26:13.549Z,12.94
2019-05-03T11:27:13.548Z,13.03
2019-05-03T11:28:13.546Z,13.30
2019-05-03T11:29:15.365Z,12.97
2019-05-03T11:30:15.637Z,12.76
2019-05-03T11:31:15.494Z,12.73
2019-05-03T11:32:14.904Z,12.78
2019-05-03T11:33:15.157Z,13.01
2019-05-03T11:34:15.092Z,12.95
2019-05-03T11:35:15.017Z,13.11
2019-05-03T11:36:14.950Z,13.41
2019-05-03T11:37:14.547Z,13.56
2019-05-03T11:38:15.070Z,13.63
2019-05-03T11:39:14.493Z,13.81
2019-05-03T11:40:15.545Z,13.97
2019-05-03T11:41:16.469Z,13.71
2019-05-03T11:42:15.173Z,13.89
2019-05-03T11:43:15.144Z,13.92
2019-05-03T11:44:15.371Z,13.99
2019-05-03T11:45:15.148Z,13.68
2019-05-03T11:46:13.523Z,13.63
2019-05-03T11:47:15.035Z,13.65
2019-05-03T11:48:14.811Z,13.78
2019-05-03T11:49:14.864Z,13.74
2019-05-03T11:50:14.815Z,13.95
2019-05-03T11:51:15.182Z,13.78
2019-05-03T11:52:15.740Z,13.35
2019-05-03T11:53:14.542Z,13.08
2019-05-03T11:54:15.534Z,13.18
2019-05-03T11:55:15.743Z,13.19
2019-05-03T11:56:14.844Z,13.19
2019-05-03T11:57:15.673Z,13.15
2019-05-03T11:58:14.947Z,13.01
2019-05-03T11:59:14.771Z,13.20
2019-05-03T12:00:14.726Z,13.15
2019-05-03T12:01:19.521Z,13.16
2019-05-03T12:02:15.239Z,13.16
2019-05-03T12:03:15.236Z,13.16
2019-05-03T12:04:15.316Z,12.94
2019-05-03T12:05:15.096Z,13.00
2019-05-03T12:06:15.509Z,12.80
2019-05-03T12:07:15.318Z,12.64
2019-05-03T12:08:14.751Z,12.68
2019-05-03T12:09:15.464Z,12.67
2019-05-03T12:10:26.606Z,12.73
2019-05-03T12:11:15.080Z,12.78
2019-05-03T12:12:15.046Z,12.64
2019-05-03T12:13:15.583Z,12.73
2019-05-03T12:14:15.204Z,13.03
2019-05-03T12:15:14.970Z,13.25
2019-05-03T12:16:19.452Z,13.38
2019-05-03T12:17:20.869Z,13.25
2019-05-03T12:18:15.895Z,12.98
2019-05-03T12:19:17.910Z,12.85
2019-05-03T12:20:16.744Z,13.12
2019-05-03T12:21:16.908Z,13.15
2019-05-03T12:22:14.273Z,13.15
2019-05-03T12:23:16.053Z,13.15
2019-05-03T12:24:15.589Z,13.20
2019-05-03T12:25:15.905Z,13.18
2019-05-03T12:26:14.713Z,12.86
2019-05-03T12:27:15.023Z,12.75
2019-05-03T12:28:15.302Z,12.95
2019-05-03T12:29:15.246Z,12.83
2019-05-03T12:30:15.276Z,12.65
2019-05-03T12:31:29.787Z,12.73
2019-05-03T12:32:14.433Z,12.85
2019-05-03T12:33:15.308Z,12.98
2019-05-03T12:34:13.456Z,12.86
2019-05-03T12:35:15.382Z,12.85
2019-05-03T12:36:15.251Z,12.85
2019-05-03T12:37:15.455Z,12.98
2019-05-03T12:38:16.294Z,13.03
2019-05-03T12:39:24.097Z,13.04
2019-05-03T12:40:14.944Z,13.03
2019-05-03T12:41:15.053Z,13.30
2019-05-03T12:42:14.862Z,13.60
2019-05-03T12:43:14.963Z,13.68
2019-05-03T12:44:15.181Z,13.87
2019-05-03T12:45:15.066Z,13.78
2019-05-03T12:46:16.644Z,13.49
2019-05-03T12:47:14.561Z,13.28
2019-05-03T12:48:15.367Z,13.37
2019-05-03T12:49:15.411Z,13.16
2019-05-03T12:50:15.459Z,13.39
2019-05-03T12:51:15.217Z,13.47
2019-05-03T12:52:16.096Z,13.16
2019-05-03T12:53:15.089Z,13.27
2019-05-03T12:54:15.175Z,13.42
2019-05-03T12:55:15.227Z,13.42
2019-05-03T12:56:16.098Z,13.57
2019-05-03T12:57:15.386Z,13.86
2019-05-03T12:58:15.035Z,13.78
2019-05-03T12:59:13.404Z,13.72
2019-05-03T13:00:15.523Z,13.31
2019-05-03T13:01:15.610Z,13.35
2019-05-03T13:02:15.374Z,13.31
2019-05-03T13:03:15.087Z,13.54
2019-05-03T13:04:15.169Z,13.77
2019-05-03T13:05:15.383Z,14.15
2019-05-03T13:06:14.902Z,14.37